LZB973 LBSF-LBWN

Flight info

Callsign LZB973
Flight time 0h 35m
Altitude 27000
Route UMPIT T343 DICXA
Aircraft A320/M-SDE3FGHIRWY/LB1

Departure

Time 2026-04-29 17:15
Airport Sofia Airport (LBSF)

Arrival

Time 2026-04-29 17:50
Airport Varna Airport (LBWN)
Time Latitude Longitude Altitude Speed Heading
2026-04-29 16:54 42.68999 23.41005 1755 ft 0 kts 161°
2026-04-29 17:09 42.68994 23.41007 1755 ft 2 kts 162°
2026-04-29 17:09 42.68967 23.41021 1755 ft 5 kts 158°
2026-04-29 17:10 42.68929 23.40987 1755 ft 8 kts 245°
2026-04-29 17:10 42.68906 23.40889 1755 ft 12 kts 256°
2026-04-29 17:10 42.68919 23.40767 1755 ft 13 kts 286°
2026-04-29 17:10 42.68948 23.40640 1755 ft 14 kts 285°
2026-04-29 17:11 42.68977 23.40506 1755 ft 15 kts 287°
2026-04-29 17:11 42.69006 23.40370 1755 ft 14 kts 286°
2026-04-29 17:11 42.69078 23.40314 1755 ft 14 kts 16°
2026-04-29 17:11 42.69186 23.40357 1755 ft 19 kts 16°
2026-04-29 17:12 42.69339 23.40419 1755 ft 24 kts 16°
2026-04-29 17:12 42.69500 23.40486 1755 ft 23 kts 23°
2026-04-29 17:12 42.69577 23.40634 1755 ft 15 kts 64°
2026-04-29 17:12 42.69599 23.40695 1755 ft 2 kts 64°
2026-04-29 17:13 42.69606 23.40716 1755 ft 7 kts 64°
2026-04-29 17:14 42.69643 23.40826 1755 ft 17 kts 66°
2026-04-29 17:14 42.69682 23.41030 1755 ft 27 kts 83°
2026-04-29 17:14 42.69662 23.41452 1755 ft 78 kts 95°
2026-04-29 17:14 42.69599 23.42535 1758 ft 148 kts 95°
2026-04-29 17:15 42.69517 23.44001 2345 ft 160 kts 93°
2026-04-29 17:15 42.69440 23.45506 3144 ft 165 kts 91°
2026-04-29 17:15 42.69355 23.47044 3861 ft 168 kts 91°
2026-04-29 17:15 42.69272 23.48670 4327 ft 184 kts 90°
2026-04-29 17:16 42.69405 23.50441 4808 ft 197 kts 70°
2026-04-29 17:16 42.69788 23.52317 5302 ft 214 kts 74°
2026-04-29 17:16 42.70114 23.54397 5697 ft 238 kts 76°
2026-04-29 17:16 42.70457 23.56685 6233 ft 257 kts 76°
2026-04-29 17:17 42.70832 23.59151 6803 ft 274 kts 76°
2026-04-29 17:17 42.71225 23.61705 7564 ft 283 kts 76°
2026-04-29 17:17 42.71633 23.64338 8395 ft 289 kts 76°
2026-04-29 17:17 42.71910 23.66111 8935 ft 292 kts 76°
2026-04-29 17:18 42.72482 23.69776 9985 ft 301 kts 76°
2026-04-29 17:18 42.72918 23.72572 10628 ft 312 kts 76°
2026-04-29 17:18 42.73380 23.75511 11058 ft 329 kts 76°
2026-04-29 17:18 42.73872 23.78635 11450 ft 348 kts 76°
2026-04-29 17:19 42.74393 23.81949 11812 ft 366 kts 76°
2026-04-29 17:19 42.74927 23.85370 12308 ft 379 kts 76°
2026-04-29 17:19 42.75478 23.88912 13017 ft 384 kts 76°
2026-04-29 17:19 42.76028 23.92453 13736 ft 388 kts 75°
2026-04-29 17:20 42.76582 23.96069 14397 ft 394 kts 76°
2026-04-29 17:20 42.77130 23.99705 15042 ft 399 kts 76°
2026-04-29 17:20 42.77689 24.03413 15736 ft 403 kts 76°
2026-04-29 17:20 42.78253 24.07154 16393 ft 407 kts 76°
2026-04-29 17:21 42.78823 24.10939 16984 ft 412 kts 76°
2026-04-29 17:21 42.79404 24.14790 17604 ft 416 kts 76°
2026-04-29 17:21 42.79979 24.18622 18199 ft 421 kts 76°
2026-04-29 17:21 42.80563 24.22526 18771 ft 425 kts 76°
2026-04-29 17:22 42.81155 24.26493 19373 ft 429 kts 76°
2026-04-29 17:22 42.81747 24.30485 19929 ft 433 kts 76°
2026-04-29 17:22 42.82342 24.34512 20485 ft 437 kts 76°
2026-04-29 17:22 42.82934 24.38537 20991 ft 442 kts 76°
2026-04-29 17:23 42.83541 24.42662 21516 ft 446 kts 75°
2026-04-29 17:23 42.84151 24.46813 22026 ft 450 kts 76°
2026-04-29 17:23 42.84768 24.51019 22545 ft 453 kts 76°
2026-04-29 17:23 42.85382 24.55201 23058 ft 457 kts 75°
2026-04-29 17:24 42.86005 24.59453 23559 ft 460 kts 75°
2026-04-29 17:24 42.86632 24.63745 24031 ft 464 kts 75°
2026-04-29 17:24 42.87259 24.68049 24462 ft 468 kts 76°
2026-04-29 17:24 42.87891 24.72413 25009 ft 469 kts 76°
2026-04-29 17:25 42.88521 24.76787 25635 ft 468 kts 76°
2026-04-29 17:25 42.89140 24.81093 26155 ft 469 kts 76°
2026-04-29 17:25 42.89766 24.85440 26553 ft 472 kts 76°
2026-04-29 17:25 42.90401 24.89856 26948 ft 476 kts 75°
2026-04-29 17:26 42.91031 24.94243 27091 ft 478 kts 75°
2026-04-29 17:26 42.91672 24.98731 27104 ft 479 kts 75°
2026-04-29 17:26 42.92307 25.03185 27103 ft 480 kts 75°
2026-04-29 17:26 42.92936 25.07617 27102 ft 480 kts 75°
2026-04-29 17:27 42.93572 25.12099 27103 ft 480 kts 75°
2026-04-29 17:27 42.94202 25.16553 27103 ft 480 kts 75°
2026-04-29 17:27 42.94829 25.21015 27108 ft 480 kts 75°
2026-04-29 17:27 42.95454 25.25457 27102 ft 480 kts 75°
2026-04-29 17:28 42.96082 25.29939 27104 ft 480 kts 75°
2026-04-29 17:28 42.96701 25.34375 27105 ft 481 kts 75°
2026-04-29 17:28 42.97326 25.38875 27106 ft 481 kts 75°
2026-04-29 17:28 42.97945 25.43331 27101 ft 481 kts 75°
2026-04-29 17:29 42.98560 25.47768 27103 ft 480 kts 75°
2026-04-29 17:29 42.99178 25.52245 26888 ft 477 kts 75°
2026-04-29 17:29 42.99787 25.56659 25972 ft 482 kts 75°
2026-04-29 17:29 43.00200 25.59652 25193 ft 488 kts 76°
2026-04-29 17:30 43.01042 25.65800 23900 ft 491 kts 76°
2026-04-29 17:30 43.01658 25.70352 23231 ft 486 kts 77°
2026-04-29 17:30 43.02261 25.74822 22619 ft 481 kts 77°
2026-04-29 17:30 43.02858 25.79246 21944 ft 477 kts 77°
2026-04-29 17:31 43.03457 25.83691 21290 ft 473 kts 77°
2026-04-29 17:31 43.04050 25.88083 20584 ft 469 kts 77°
2026-04-29 17:31 43.04637 25.92445 19937 ft 465 kts 77°
2026-04-29 17:31 43.05212 25.96746 19352 ft 460 kts 78°
2026-04-29 17:32 43.05786 26.01052 18770 ft 457 kts 78°
2026-04-29 17:32 43.06357 26.05334 18279 ft 464 kts 78°
2026-04-29 17:32 43.06923 26.09613 17873 ft 454 kts 78°
2026-04-29 17:32 43.07474 26.13800 17395 ft 447 kts 78°
2026-04-29 17:33 43.08024 26.17984 16794 ft 442 kts 78°
2026-04-29 17:33 43.08557 26.22046 16314 ft 435 kts 78°
2026-04-29 17:33 43.09085 26.26071 15859 ft 428 kts 78°
2026-04-29 17:33 43.09604 26.30051 15386 ft 421 kts 78°
2026-04-29 17:34 43.10112 26.33947 14964 ft 414 kts 78°
2026-04-29 17:34 43.10626 26.37810 14485 ft 409 kts 77°
2026-04-29 17:34 43.11132 26.41595 13999 ft 404 kts 77°
2026-04-29 17:34 43.11625 26.45324 13529 ft 400 kts 77°
2026-04-29 17:35 43.12271 26.50277 12897 ft 395 kts 77°
2026-04-29 17:35 43.13062 26.56403 12118 ft 387 kts 78°
2026-04-29 17:35 43.13520 26.59974 11705 ft 382 kts 77°
2026-04-29 17:36 43.13976 26.63555 11277 ft 378 kts 77°
2026-04-29 17:36 43.14423 26.67069 10845 ft 374 kts 78°
2026-04-29 17:36 43.14863 26.70553 10406 ft 370 kts 78°
2026-04-29 17:36 43.15290 26.73943 10235 ft 357 kts 78°
2026-04-29 17:37 43.15702 26.77229 10124 ft 342 kts 78°
2026-04-29 17:37 43.16092 26.80329 10036 ft 328 kts 78°
2026-04-29 17:37 43.16472 26.83356 9965 ft 314 kts 78°
2026-04-29 17:37 43.16833 26.86240 9892 ft 300 kts 78°
2026-04-29 17:38 43.17183 26.89025 9603 ft 298 kts 78°
2026-04-29 17:38 43.17533 26.91792 9305 ft 295 kts 78°
2026-04-29 17:38 43.17883 26.94579 9006 ft 292 kts 78°
2026-04-29 17:38 43.18220 26.97286 8714 ft 288 kts 78°
2026-04-29 17:39 43.18556 26.99981 8439 ft 285 kts 78°
2026-04-29 17:39 43.18883 27.02625 8158 ft 282 kts 79°
2026-04-29 17:39 43.19209 27.05252 7884 ft 279 kts 79°
2026-04-29 17:39 43.19531 27.07859 7615 ft 276 kts 79°
2026-04-29 17:40 43.19848 27.10429 7332 ft 273 kts 79°
2026-04-29 17:40 43.20159 27.12956 7056 ft 271 kts 79°
2026-04-29 17:40 43.20473 27.15507 6781 ft 268 kts 80°
2026-04-29 17:40 43.20781 27.18014 6509 ft 266 kts 80°
2026-04-29 17:41 43.21077 27.20443 6243 ft 264 kts 80°
2026-04-29 17:41 43.21375 27.22888 5976 ft 262 kts 80°
2026-04-29 17:41 43.21673 27.25339 5701 ft 260 kts 81°
2026-04-29 17:41 43.21972 27.27798 5424 ft 259 kts 81°
2026-04-29 17:42 43.22264 27.30203 5152 ft 257 kts 81°
2026-04-29 17:42 43.22557 27.32624 4878 ft 255 kts 81°
2026-04-29 17:42 43.22845 27.35002 4652 ft 250 kts 81°
2026-04-29 17:42 43.23124 27.37313 4414 ft 245 kts 81°
2026-04-29 17:43 43.23400 27.39599 4200 ft 240 kts 82°
2026-04-29 17:43 43.23666 27.41807 3964 ft 236 kts 82°
2026-04-29 17:43 43.23930 27.44010 3728 ft 232 kts 82°
2026-04-29 17:43 43.24191 27.46185 3494 ft 228 kts 82°
2026-04-29 17:44 43.24445 27.48308 3263 ft 224 kts 82°
2026-04-29 17:44 43.24693 27.50385 3054 ft 219 kts 83°
2026-04-29 17:44 43.24936 27.52418 2974 ft 209 kts 83°
2026-04-29 17:44 43.25188 27.54338 2960 ft 198 kts 83°
2026-04-29 17:45 43.25334 27.56165 2967 ft 194 kts 91°
2026-04-29 17:45 43.25310 27.58028 2971 ft 194 kts 95°
2026-04-29 17:45 43.25217 27.59851 2969 ft 192 kts 97°
2026-04-29 17:45 43.25084 27.61635 3029 ft 185 kts 98°
2026-04-29 17:46 43.24930 27.63378 2784 ft 183 kts 99°
2026-04-29 17:46 43.24771 27.65099 2516 ft 178 kts 99°
2026-04-29 17:46 43.24623 27.66718 2256 ft 166 kts 99°
2026-04-29 17:46 43.24485 27.68239 2052 ft 157 kts 99°
2026-04-29 17:47 43.24351 27.69704 1843 ft 155 kts 99°
2026-04-29 17:47 43.24222 27.71126 1642 ft 145 kts 99°
2026-04-29 17:47 43.24105 27.72435 1430 ft 131 kts 100°
2026-04-29 17:47 43.23991 27.73661 1266 ft 129 kts 100°
2026-04-29 17:48 43.23881 27.74863 1106 ft 128 kts 99°
2026-04-29 17:48 43.23774 27.76091 938 ft 128 kts 99°
2026-04-29 17:48 43.23664 27.77299 766 ft 128 kts 99°
2026-04-29 17:48 43.23558 27.78502 592 ft 128 kts 98°
2026-04-29 17:49 43.23450 27.79703 419 ft 127 kts 98°
2026-04-29 17:49 43.23340 27.80905 254 ft 126 kts 99°
2026-04-29 17:49 43.23238 27.82037 228 ft 102 kts 98°
2026-04-29 17:49 43.23170 27.82806 239 ft 56 kts 97°
2026-04-29 17:50 43.23134 27.83224 242 ft 22 kts 79°
2026-04-29 17:50 43.23239 27.83297 243 ft 17 kts
2026-04-29 17:50 43.23351 27.83313 246 ft 15 kts 358°
2026-04-29 17:50 43.23438 27.83240 247 ft 14 kts 322°
2026-04-29 17:51 43.23517 27.83151 249 ft 14 kts 314°
2026-04-29 17:51 43.23553 27.83026 248 ft 15 kts 276°
2026-04-29 17:51 43.23538 27.82874 245 ft 17 kts 269°
2026-04-29 17:51 43.23547 27.82699 242 ft 19 kts 278°
2026-04-29 17:52 43.23562 27.82579 240 ft 7 kts 308°
2026-04-29 17:52 43.23585 27.82589 240 ft 6 kts 59°
2026-04-29 17:52 43.23607 27.82647 243 ft 0 kts 60°
2026-04-29 17:52 43.23607 27.82650 244 ft 0 kts 59°